KGSB/GSB METAR and TAF weather

Enter ICAO airport designator
Station Type Date Time Source
KGSB METAR 2022/01/26 07:56 UTC NOAA

KGSB 260756Z 03008KT 10SM CLR 03/M01 A3010 RMK AO2A SLP197 T00321010 RVRNO VISNO RWY26 $


Station Type Date Time Source
KGSB Decoded METAR 2022/01/26 07:56 UTC NOAA

Seymour-Johnson Air Force Base, NC, United States (KGSB) 35-20N 077-58W
Jan 26, 2022 - 02:56 AM EST / 2022.01.26 0756 UTC
Wind: from the NNE (030 degrees) at 9 MPH (8 KT):0
Visibility: 10 mile(s):0
Sky conditions: clear
Temperature: 37.8 F (3.2 C)
Dew Point: 30.2 F (-1.0 C)
Relative Humidity: 73%
Pressure (altimeter): 30.1 in. Hg (1019 hPa)
ob: KGSB 260756Z 03008KT 10SM CLR 03/M01 A3010 RMK AO2A SLP197 T00321010 RVRNO VISNO RWY26
cycle: 8

Station Type Date Time Source
KGSB TAF 2022/01/26 05:06 UTC NOAA

TAF KGSB 260500Z 2605/2711 30009KT 9999 SCT050 QNH3003INS
BECMG 2612/2613 05010G20KT 9999 BKN020 620206 QNH3025INS
BECMG 2622/2623 06009KT 9999 SKC QNH3020INS TX06/2606Z TN00/2612Z LAST NO
AMDS AFT 2605 NEXT 2613

Example: see airport list